sensor_id;sensor_type;location;lat;lon;timestamp;P1;durP1;ratioP1;P2;durP2;ratioP2
57225;SDS011;43082;43.568;22.256;2023-02-14T00:00:51;42.47;;;29.23;;
57225;SDS011;43082;43.568;22.256;2023-02-14T00:03:17;41.25;;;25.75;;
57225;SDS011;43082;43.568;22.256;2023-02-14T00:05:42;33.30;;;23.05;;
57225;SDS011;43082;43.568;22.256;2023-02-14T00:08:08;31.73;;;22.55;;
57225;SDS011;43082;43.568;22.256;2023-02-14T00:10:33;33.33;;;22.48;;
57225;SDS011;43082;43.568;22.256;2023-02-14T00:12:58;31.25;;;21.85;;
57225;SDS011;43082;43.568;22.256;2023-02-14T00:15:24;32.42;;;21.63;;
57225;SDS011;43082;43.568;22.256;2023-02-14T00:17:53;25.52;;;18.13;;
57225;SDS011;43082;43.568;22.256;2023-02-14T00:20:21;26.35;;;18.70;;
57225;SDS011;43082;43.568;22.256;2023-02-14T00:22:47;32.47;;;21.95;;
57225;SDS011;43082;43.568;22.256;2023-02-14T00:25:12;30.98;;;21.27;;
57225;SDS011;43082;43.568;22.256;2023-02-14T00:27:38;30.83;;;22.75;;
57225;SDS011;43082;43.568;22.256;2023-02-14T00:30:04;36.25;;;23.88;;
57225;SDS011;43082;43.568;22.256;2023-02-14T00:32:31;37.45;;;26.75;;
57225;SDS011;43082;43.568;22.256;2023-02-14T00:34:57;41.33;;;28.75;;
57225;SDS011;43082;43.568;22.256;2023-02-14T00:37:22;31.80;;;22.00;;
57225;SDS011;43082;43.568;22.256;2023-02-14T00:39:48;34.03;;;23.52;;
57225;SDS011;43082;43.568;22.256;2023-02-14T00:42:13;46.83;;;33.15;;
57225;SDS011;43082;43.568;22.256;2023-02-14T00:44:39;45.72;;;32.33;;
57225;SDS011;43082;43.568;22.256;2023-02-14T00:47:05;48.22;;;32.85;;
57225;SDS011;43082;43.568;22.256;2023-02-14T00:49:30;44.58;;;31.13;;
57225;SDS011;43082;43.568;22.256;2023-02-14T00:51:56;43.38;;;30.55;;
57225;SDS011;43082;43.568;22.256;2023-02-14T00:54:21;53.25;;;35.78;;
57225;SDS011;43082;43.568;22.256;2023-02-14T00:56:46;53.30;;;36.38;;
57225;SDS011;43082;43.568;22.256;2023-02-14T00:59:12;38.40;;;27.13;;
57225;SDS011;43082;43.568;22.256;2023-02-14T01:01:37;36.58;;;26.42;;
57225;SDS011;43082;43.568;22.256;2023-02-14T01:04:03;35.83;;;26.48;;
57225;SDS011;43082;43.568;22.256;2023-02-14T01:06:29;31.05;;;23.23;;
57225;SDS011;43082;43.568;22.256;2023-02-14T01:08:54;39.28;;;26.58;;
57225;SDS011;43082;43.568;22.256;2023-02-14T01:11:21;42.65;;;27.35;;
57225;SDS011;43082;43.568;22.256;2023-02-14T01:13:47;37.63;;;24.58;;
57225;SDS011;43082;43.568;22.256;2023-02-14T01:16:14;48.95;;;33.47;;
57225;SDS011;43082;43.568;22.256;2023-02-14T01:18:43;44.17;;;31.98;;
57225;SDS011;43082;43.568;22.256;2023-02-14T01:21:10;37.65;;;26.25;;
57225;SDS011;43082;43.568;22.256;2023-02-14T01:23:36;35.03;;;24.75;;
57225;SDS011;43082;43.568;22.256;2023-02-14T01:26:06;31.48;;;22.77;;
57225;SDS011;43082;43.568;22.256;2023-02-14T01:28:32;39.65;;;27.60;;
57225;SDS011;43082;43.568;22.256;2023-02-14T01:31:04;44.58;;;30.08;;
57225;SDS011;43082;43.568;22.256;2023-02-14T01:33:37;38.80;;;27.20;;
57225;SDS011;43082;43.568;22.256;2023-02-14T01:36:03;36.95;;;26.08;;
57225;SDS011;43082;43.568;22.256;2023-02-14T01:38:29;46.90;;;32.90;;
57225;SDS011;43082;43.568;22.256;2023-02-14T01:40:54;147.38;;;98.72;;
57225;SDS011;43082;43.568;22.256;2023-02-14T01:43:20;143.73;;;103.35;;
57225;SDS011;43082;43.568;22.256;2023-02-14T01:45:45;116.78;;;75.10;;
57225;SDS011;43082;43.568;22.256;2023-02-14T01:48:10;95.45;;;62.42;;
57225;SDS011;43082;43.568;22.256;2023-02-14T01:50:37;104.13;;;67.65;;
57225;SDS011;43082;43.568;22.256;2023-02-14T01:53:07;65.55;;;43.80;;
57225;SDS011;43082;43.568;22.256;2023-02-14T01:55:36;29.40;;;21.80;;
57225;SDS011;43082;43.568;22.256;2023-02-14T01:58:05;37.33;;;25.67;;
57225;SDS011;43082;43.568;22.256;2023-02-14T02:00:33;77.10;;;54.13;;
57225;SDS011;43082;43.568;22.256;2023-02-14T02:03:18;60.38;;;40.83;;
57225;SDS011;43082;43.568;22.256;2023-02-14T02:05:46;50.47;;;35.20;;
57225;SDS011;43082;43.568;22.256;2023-02-14T02:08:13;53.58;;;35.70;;
57225;SDS011;43082;43.568;22.256;2023-02-14T02:10:39;54.22;;;35.63;;
57225;SDS011;43082;43.568;22.256;2023-02-14T02:13:05;53.70;;;37.47;;
57225;SDS011;43082;43.568;22.256;2023-02-14T02:24:10;63.05;;;43.13;;
57225;SDS011;43082;43.568;22.256;2023-02-14T02:37:57;67.65;;;45.30;;
57225;SDS011;43082;43.568;22.256;2023-02-14T02:46:30;64.50;;;43.28;;
57225;SDS011;43082;43.568;22.256;2023-02-14T02:52:08;53.80;;;35.70;;
57225;SDS011;43082;43.568;22.256;2023-02-14T02:54:57;41.42;;;28.98;;
57225;SDS011;43082;43.568;22.256;2023-02-14T02:57:30;36.10;;;25.33;;
57225;SDS011;43082;43.568;22.256;2023-02-14T02:59:58;40.10;;;28.05;;
57225;SDS011;43082;43.568;22.256;2023-02-14T03:02:25;40.25;;;27.83;;
57225;SDS011;43082;43.568;22.256;2023-02-14T03:04:55;40.22;;;27.70;;
57225;SDS011;43082;43.568;22.256;2023-02-14T03:27:05;42.25;;;30.67;;
57225;SDS011;43082;43.568;22.256;2023-02-14T03:29:51;51.90;;;35.35;;
57225;SDS011;43082;43.568;22.256;2023-02-14T03:32:53;64.55;;;41.40;;
57225;SDS011;43082;43.568;22.256;2023-02-14T03:36:00;65.90;;;42.65;;
57225;SDS011;43082;43.568;22.256;2023-02-14T03:38:39;60.30;;;41.45;;
57225;SDS011;43082;43.568;22.256;2023-02-14T03:41:19;76.40;;;49.25;;
57225;SDS011;43082;43.568;22.256;2023-02-14T03:43:48;64.15;;;44.78;;
57225;SDS011;43082;43.568;22.256;2023-02-14T03:46:20;70.28;;;48.72;;
57225;SDS011;43082;43.568;22.256;2023-02-14T03:48:50;66.72;;;47.83;;
57225;SDS011;43082;43.568;22.256;2023-02-14T03:51:17;67.65;;;45.17;;
57225;SDS011;43082;43.568;22.256;2023-02-14T03:53:45;60.45;;;42.75;;
57225;SDS011;43082;43.568;22.256;2023-02-14T03:58:56;61.17;;;42.92;;
57225;SDS011;43082;43.568;22.256;2023-02-14T04:01:31;62.35;;;45.15;;
57225;SDS011;43082;43.568;22.256;2023-02-14T04:03:59;60.40;;;43.67;;
57225;SDS011;43082;43.568;22.256;2023-02-14T04:06:24;67.07;;;46.97;;
57225;SDS011;43082;43.568;22.256;2023-02-14T04:08:50;68.75;;;47.75;;
57225;SDS011;43082;43.568;22.256;2023-02-14T04:11:15;67.00;;;47.33;;
57225;SDS011;43082;43.568;22.256;2023-02-14T04:13:41;66.13;;;43.95;;
57225;SDS011;43082;43.568;22.256;2023-02-14T04:16:06;71.30;;;50.63;;
57225;SDS011;43082;43.568;22.256;2023-02-14T04:18:32;68.70;;;48.22;;
57225;SDS011;43082;43.568;22.256;2023-02-14T04:21:16;63.03;;;45.05;;
57225;SDS011;43082;43.568;22.256;2023-02-14T04:23:41;40.58;;;29.73;;
57225;SDS011;43082;43.568;22.256;2023-02-14T04:26:06;50.25;;;35.60;;
57225;SDS011;43082;43.568;22.256;2023-02-14T04:28:32;26.48;;;18.67;;
57225;SDS011;43082;43.568;22.256;2023-02-14T04:31:01;27.67;;;19.08;;
57225;SDS011;43082;43.568;22.256;2023-02-14T04:33:28;27.95;;;19.33;;
57225;SDS011;43082;43.568;22.256;2023-02-14T04:35:53;26.83;;;18.42;;
57225;SDS011;43082;43.568;22.256;2023-02-14T04:38:18;32.00;;;21.77;;
57225;SDS011;43082;43.568;22.256;2023-02-14T04:40:44;28.52;;;20.70;;
57225;SDS011;43082;43.568;22.256;2023-02-14T04:43:09;26.63;;;19.15;;
57225;SDS011;43082;43.568;22.256;2023-02-14T04:45:35;34.25;;;24.20;;
57225;SDS011;43082;43.568;22.256;2023-02-14T04:48:00;41.03;;;29.77;;
57225;SDS011;43082;43.568;22.256;2023-02-14T04:50:26;56.95;;;39.50;;
57225;SDS011;43082;43.568;22.256;2023-02-14T04:52:51;74.70;;;48.58;;
57225;SDS011;43082;43.568;22.256;2023-02-14T04:55:17;72.45;;;46.92;;
57225;SDS011;43082;43.568;22.256;2023-02-14T04:57:43;70.80;;;46.85;;
57225;SDS011;43082;43.568;22.256;2023-02-14T05:00:08;57.05;;;40.47;;
57225;SDS011;43082;43.568;22.256;2023-02-14T05:02:35;48.10;;;33.67;;
57225;SDS011;43082;43.568;22.256;2023-02-14T05:05:00;48.13;;;32.90;;
57225;SDS011;43082;43.568;22.256;2023-02-14T05:07:26;50.72;;;35.53;;
57225;SDS011;43082;43.568;22.256;2023-02-14T05:09:51;55.53;;;39.00;;
57225;SDS011;43082;43.568;22.256;2023-02-14T05:12:16;62.47;;;43.17;;
57225;SDS011;43082;43.568;22.256;2023-02-14T05:14:42;75.72;;;49.97;;
57225;SDS011;43082;43.568;22.256;2023-02-14T05:17:07;69.07;;;46.78;;
57225;SDS011;43082;43.568;22.256;2023-02-14T05:19:32;65.80;;;47.25;;
57225;SDS011;43082;43.568;22.256;2023-02-14T05:21:58;76.28;;;53.92;;
57225;SDS011;43082;43.568;22.256;2023-02-14T05:24:23;61.63;;;44.75;;
57225;SDS011;43082;43.568;22.256;2023-02-14T05:26:49;61.80;;;42.90;;
57225;SDS011;43082;43.568;22.256;2023-02-14T05:29:14;56.65;;;41.22;;
57225;SDS011;43082;43.568;22.256;2023-02-14T05:31:39;54.22;;;38.78;;
57225;SDS011;43082;43.568;22.256;2023-02-14T05:34:05;51.47;;;36.38;;
57225;SDS011;43082;43.568;22.256;2023-02-14T05:36:30;47.75;;;35.25;;
57225;SDS011;43082;43.568;22.256;2023-02-14T05:38:55;56.15;;;41.75;;
57225;SDS011;43082;43.568;22.256;2023-02-14T05:41:21;61.53;;;43.80;;
57225;SDS011;43082;43.568;22.256;2023-02-14T05:43:46;50.03;;;36.58;;
57225;SDS011;43082;43.568;22.256;2023-02-14T05:46:12;61.20;;;42.63;;
57225;SDS011;43082;43.568;22.256;2023-02-14T05:48:37;68.88;;;50.67;;
57225;SDS011;43082;43.568;22.256;2023-02-14T05:51:07;72.25;;;54.25;;
57225;SDS011;43082;43.568;22.256;2023-02-14T05:53:33;78.22;;;54.28;;
57225;SDS011;43082;43.568;22.256;2023-02-14T05:55:59;74.43;;;53.72;;
57225;SDS011;43082;43.568;22.256;2023-02-14T05:58:24;103.22;;;73.32;;
57225;SDS011;43082;43.568;22.256;2023-02-14T06:00:50;130.63;;;94.32;;
57225;SDS011;43082;43.568;22.256;2023-02-14T06:03:15;133.65;;;94.03;;
57225;SDS011;43082;43.568;22.256;2023-02-14T06:05:41;109.38;;;79.50;;
57225;SDS011;43082;43.568;22.256;2023-02-14T06:08:06;129.70;;;93.32;;
57225;SDS011;43082;43.568;22.256;2023-02-14T06:10:31;122.72;;;90.57;;
57225;SDS011;43082;43.568;22.256;2023-02-14T06:12:57;112.13;;;81.60;;
57225;SDS011;43082;43.568;22.256;2023-02-14T06:15:22;109.05;;;78.88;;
57225;SDS011;43082;43.568;22.256;2023-02-14T06:17:52;108.07;;;77.65;;
57225;SDS011;43082;43.568;22.256;2023-02-14T06:20:18;127.60;;;90.80;;
57225;SDS011;43082;43.568;22.256;2023-02-14T06:22:44;94.93;;;70.07;;
57225;SDS011;43082;43.568;22.256;2023-02-14T06:25:09;93.20;;;67.90;;
57225;SDS011;43082;43.568;22.256;2023-02-14T06:27:34;76.72;;;56.85;;
57225;SDS011;43082;43.568;22.256;2023-02-14T06:30:00;66.35;;;50.50;;
57225;SDS011;43082;43.568;22.256;2023-02-14T06:32:25;74.38;;;53.08;;
57225;SDS011;43082;43.568;22.256;2023-02-14T06:34:51;58.78;;;44.17;;
57225;SDS011;43082;43.568;22.256;2023-02-14T06:37:16;52.22;;;39.90;;
57225;SDS011;43082;43.568;22.256;2023-02-14T06:39:41;47.78;;;35.97;;
57225;SDS011;43082;43.568;22.256;2023-02-14T06:42:07;49.75;;;37.63;;
57225;SDS011;43082;43.568;22.256;2023-02-14T06:44:32;50.25;;;38.67;;
57225;SDS011;43082;43.568;22.256;2023-02-14T06:46:58;50.15;;;37.38;;
57225;SDS011;43082;43.568;22.256;2023-02-14T06:49:23;52.25;;;38.20;;
57225;SDS011;43082;43.568;22.256;2023-02-14T06:51:49;47.95;;;37.22;;
57225;SDS011;43082;43.568;22.256;2023-02-14T06:54:14;40.88;;;31.40;;
57225;SDS011;43082;43.568;22.256;2023-02-14T06:56:40;42.25;;;30.98;;
57225;SDS011;43082;43.568;22.256;2023-02-14T06:59:05;45.65;;;33.70;;
57225;SDS011;43082;43.568;22.256;2023-02-14T07:01:31;49.75;;;35.28;;
57225;SDS011;43082;43.568;22.256;2023-02-14T07:03:56;37.90;;;27.45;;
57225;SDS011;43082;43.568;22.256;2023-02-14T07:06:21;41.00;;;29.92;;
57225;SDS011;43082;43.568;22.256;2023-02-14T07:08:47;31.92;;;23.90;;
57225;SDS011;43082;43.568;22.256;2023-02-14T07:11:13;32.17;;;23.95;;
57225;SDS011;43082;43.568;22.256;2023-02-14T07:13:38;33.05;;;22.48;;
57225;SDS011;43082;43.568;22.256;2023-02-14T07:16:03;30.55;;;21.65;;
57225;SDS011;43082;43.568;22.256;2023-02-14T07:18:29;26.70;;;20.20;;
57225;SDS011;43082;43.568;22.256;2023-02-14T07:20:54;30.77;;;23.92;;
57225;SDS011;43082;43.568;22.256;2023-02-14T07:23:20;27.13;;;21.17;;
57225;SDS011;43082;43.568;22.256;2023-02-14T07:25:46;21.50;;;16.42;;
57225;SDS011;43082;43.568;22.256;2023-02-14T07:28:11;21.05;;;14.77;;
57225;SDS011;43082;43.568;22.256;2023-02-14T07:30:36;21.05;;;16.25;;
57225;SDS011;43082;43.568;22.256;2023-02-14T07:33:02;31.20;;;21.00;;
57225;SDS011;43082;43.568;22.256;2023-02-14T07:35:27;28.63;;;20.25;;
57225;SDS011;43082;43.568;22.256;2023-02-14T07:37:53;29.52;;;20.52;;
57225;SDS011;43082;43.568;22.256;2023-02-14T07:40:18;63.15;;;36.75;;
57225;SDS011;43082;43.568;22.256;2023-02-14T07:42:50;35.30;;;27.25;;
57225;SDS011;43082;43.568;22.256;2023-02-14T07:45:20;27.25;;;21.33;;
57225;SDS011;43082;43.568;22.256;2023-02-14T07:47:52;31.40;;;22.65;;
57225;SDS011;43082;43.568;22.256;2023-02-14T07:50:18;32.80;;;26.83;;
57225;SDS011;43082;43.568;22.256;2023-02-14T07:52:44;31.90;;;23.35;;
57225;SDS011;43082;43.568;22.256;2023-02-14T07:55:10;29.10;;;23.38;;
57225;SDS011;43082;43.568;22.256;2023-02-14T07:57:35;26.05;;;19.98;;
57225;SDS011;43082;43.568;22.256;2023-02-14T08:00:01;26.52;;;19.38;;
57225;SDS011;43082;43.568;22.256;2023-02-14T08:02:28;24.65;;;17.33;;
57225;SDS011;43082;43.568;22.256;2023-02-14T08:04:53;22.98;;;16.88;;
57225;SDS011;43082;43.568;22.256;2023-02-14T08:07:19;27.00;;;20.40;;
57225;SDS011;43082;43.568;22.256;2023-02-14T08:09:44;29.13;;;20.73;;
57225;SDS011;43082;43.568;22.256;2023-02-14T08:12:09;27.98;;;21.70;;
57225;SDS011;43082;43.568;22.256;2023-02-14T08:14:53;29.08;;;21.15;;
57225;SDS011;43082;43.568;22.256;2023-02-14T08:17:39;32.35;;;23.30;;
57225;SDS011;43082;43.568;22.256;2023-02-14T08:20:04;56.42;;;37.42;;
57225;SDS011;43082;43.568;22.256;2023-02-14T08:22:30;41.63;;;26.75;;
57225;SDS011;43082;43.568;22.256;2023-02-14T08:24:55;39.00;;;26.73;;
57225;SDS011;43082;43.568;22.256;2023-02-14T08:27:21;61.53;;;42.00;;
57225;SDS011;43082;43.568;22.256;2023-02-14T08:29:46;40.88;;;28.48;;
57225;SDS011;43082;43.568;22.256;2023-02-14T08:32:12;43.55;;;28.27;;
57225;SDS011;43082;43.568;22.256;2023-02-14T08:34:38;99.45;;;62.75;;
57225;SDS011;43082;43.568;22.256;2023-02-14T08:37:04;35.28;;;24.40;;
57225;SDS011;43082;43.568;22.256;2023-02-14T08:39:29;105.20;;;65.05;;
57225;SDS011;43082;43.568;22.256;2023-02-14T08:41:55;34.85;;;24.63;;
57225;SDS011;43082;43.568;22.256;2023-02-14T08:44:20;105.05;;;63.42;;
57225;SDS011;43082;43.568;22.256;2023-02-14T08:46:45;96.93;;;59.30;;
57225;SDS011;43082;43.568;22.256;2023-02-14T08:49:11;57.63;;;39.90;;
57225;SDS011;43082;43.568;22.256;2023-02-14T08:51:36;52.65;;;35.38;;
57225;SDS011;43082;43.568;22.256;2023-02-14T08:54:01;67.57;;;44.15;;
57225;SDS011;43082;43.568;22.256;2023-02-14T08:56:27;163.55;;;107.25;;
57225;SDS011;43082;43.568;22.256;2023-02-14T08:58:52;118.63;;;79.32;;
57225;SDS011;43082;43.568;22.256;2023-02-14T09:01:18;164.85;;;112.57;;
57225;SDS011;43082;43.568;22.256;2023-02-14T09:03:44;88.80;;;66.13;;
57225;SDS011;43082;43.568;22.256;2023-02-14T09:06:10;62.53;;;46.50;;
57225;SDS011;43082;43.568;22.256;2023-02-14T09:08:38;43.22;;;33.63;;
57225;SDS011;43082;43.568;22.256;2023-02-14T09:11:11;55.15;;;39.47;;
57225;SDS011;43082;43.568;22.256;2023-02-14T09:13:38;44.45;;;31.70;;
57225;SDS011;43082;43.568;22.256;2023-02-14T09:16:07;32.05;;;21.95;;
57225;SDS011;43082;43.568;22.256;2023-02-14T09:18:34;34.20;;;24.75;;
57225;SDS011;43082;43.568;22.256;2023-02-14T09:20:59;29.85;;;22.35;;
57225;SDS011;43082;43.568;22.256;2023-02-14T09:23:25;30.48;;;21.63;;
57225;SDS011;43082;43.568;22.256;2023-02-14T09:25:58;27.80;;;20.73;;
57225;SDS011;43082;43.568;22.256;2023-02-14T09:28:24;29.30;;;19.73;;
57225;SDS011;43082;43.568;22.256;2023-02-14T09:30:50;39.13;;;27.88;;
57225;SDS011;43082;43.568;22.256;2023-02-14T09:33:15;41.33;;;27.88;;
57225;SDS011;43082;43.568;22.256;2023-02-14T09:35:41;26.25;;;18.35;;
57225;SDS011;43082;43.568;22.256;2023-02-14T09:38:08;42.85;;;28.52;;
57225;SDS011;43082;43.568;22.256;2023-02-14T09:40:41;36.88;;;27.33;;
57225;SDS011;43082;43.568;22.256;2023-02-14T09:43:24;37.75;;;25.25;;
57225;SDS011;43082;43.568;22.256;2023-02-14T09:45:58;27.08;;;19.05;;
57225;SDS011;43082;43.568;22.256;2023-02-14T09:48:36;33.70;;;23.90;;
57225;SDS011;43082;43.568;22.256;2023-02-14T09:51:04;28.20;;;19.33;;
57225;SDS011;43082;43.568;22.256;2023-02-14T09:53:43;47.65;;;32.17;;
57225;SDS011;43082;43.568;22.256;2023-02-14T09:58:48;31.77;;;22.25;;
57225;SDS011;43082;43.568;22.256;2023-02-14T10:01:17;24.17;;;16.88;;
57225;SDS011;43082;43.568;22.256;2023-02-14T10:03:50;24.35;;;17.42;;
57225;SDS011;43082;43.568;22.256;2023-02-14T10:11:58;55.42;;;38.22;;
57225;SDS011;43082;43.568;22.256;2023-02-14T10:14:26;39.78;;;28.08;;
57225;SDS011;43082;43.568;22.256;2023-02-14T10:16:58;40.00;;;28.00;;
57225;SDS011;43082;43.568;22.256;2023-02-14T10:19:32;23.73;;;16.02;;
57225;SDS011;43082;43.568;22.256;2023-02-14T10:22:02;25.15;;;17.13;;
57225;SDS011;43082;43.568;22.256;2023-02-14T10:27:26;21.42;;;14.57;;
57225;SDS011;43082;43.568;22.256;2023-02-14T10:29:54;22.13;;;14.82;;
57225;SDS011;43082;43.568;22.256;2023-02-14T10:32:23;17.42;;;12.98;;
57225;SDS011;43082;43.568;22.256;2023-02-14T10:35:50;16.90;;;11.98;;
57225;SDS011;43082;43.568;22.256;2023-02-14T10:46:11;25.23;;;18.60;;
57225;SDS011;43082;43.568;22.256;2023-02-14T10:48:50;19.95;;;14.40;;
57225;SDS011;43082;43.568;22.256;2023-02-14T10:56:30;24.67;;;19.05;;
57225;SDS011;43082;43.568;22.256;2023-02-14T10:59:00;23.00;;;15.77;;
57225;SDS011;43082;43.568;22.256;2023-02-14T11:01:32;22.45;;;16.65;;
57225;SDS011;43082;43.568;22.256;2023-02-14T11:03:58;23.55;;;17.83;;
57225;SDS011;43082;43.568;22.256;2023-02-14T11:06:31;23.98;;;17.75;;
57225;SDS011;43082;43.568;22.256;2023-02-14T11:08:57;25.98;;;19.27;;
57225;SDS011;43082;43.568;22.256;2023-02-14T11:11:36;26.30;;;18.95;;
57225;SDS011;43082;43.568;22.256;2023-02-14T11:14:22;20.70;;;16.30;;
57225;SDS011;43082;43.568;22.256;2023-02-14T11:16:50;28.88;;;22.85;;
57225;SDS011;43082;43.568;22.256;2023-02-14T11:19:26;31.98;;;24.45;;
57225;SDS011;43082;43.568;22.256;2023-02-14T11:21:58;23.73;;;17.52;;
57225;SDS011;43082;43.568;22.256;2023-02-14T11:24:30;24.60;;;18.65;;
57225;SDS011;43082;43.568;22.256;2023-02-14T11:26:58;23.50;;;17.27;;
57225;SDS011;43082;43.568;22.256;2023-02-14T11:29:30;22.35;;;17.80;;
57225;SDS011;43082;43.568;22.256;2023-02-14T11:32:21;22.52;;;17.08;;
57225;SDS011;43082;43.568;22.256;2023-02-14T11:39:47;19.25;;;14.57;;
57225;SDS011;43082;43.568;22.256;2023-02-14T11:42:14;20.58;;;13.75;;
57225;SDS011;43082;43.568;22.256;2023-02-14T11:44:57;20.80;;;16.13;;
57225;SDS011;43082;43.568;22.256;2023-02-14T11:47:27;19.08;;;14.50;;
57225;SDS011;43082;43.568;22.256;2023-02-14T11:49:59;22.13;;;15.75;;
57225;SDS011;43082;43.568;22.256;2023-02-14T11:52:26;23.40;;;17.77;;
57225;SDS011;43082;43.568;22.256;2023-02-14T11:54:53;23.83;;;16.67;;
57225;SDS011;43082;43.568;22.256;2023-02-14T11:57:31;23.63;;;18.52;;
57225;SDS011;43082;43.568;22.256;2023-02-14T12:00:03;25.88;;;18.48;;
57225;SDS011;43082;43.568;22.256;2023-02-14T12:02:39;30.35;;;23.17;;
57225;SDS011;43082;43.568;22.256;2023-02-14T12:07:46;52.95;;;34.03;;
57225;SDS011;43082;43.568;22.256;2023-02-14T12:15:25;37.03;;;28.35;;
57225;SDS011;43082;43.568;22.256;2023-02-14T12:17:54;42.83;;;34.85;;
57225;SDS011;43082;43.568;22.256;2023-02-14T12:20:34;43.42;;;36.53;;
57225;SDS011;43082;43.568;22.256;2023-02-14T12:23:23;29.77;;;21.95;;
57225;SDS011;43082;43.568;22.256;2023-02-14T12:26:02;23.25;;;17.15;;
57225;SDS011;43082;43.568;22.256;2023-02-14T12:28:34;18.92;;;14.40;;
57225;SDS011;43082;43.568;22.256;2023-02-14T12:31:09;21.65;;;15.82;;
57225;SDS011;43082;43.568;22.256;2023-02-14T12:33:35;21.17;;;15.52;;
57225;SDS011;43082;43.568;22.256;2023-02-14T12:36:03;20.20;;;15.15;;
57225;SDS011;43082;43.568;22.256;2023-02-14T12:38:44;27.02;;;20.02;;
57225;SDS011;43082;43.568;22.256;2023-02-14T13:00:55;31.55;;;24.50;;
57225;SDS011;43082;43.568;22.256;2023-02-14T13:16:45;47.47;;;36.13;;
57225;SDS011;43082;43.568;22.256;2023-02-14T13:21:58;28.90;;;21.75;;
57225;SDS011;43082;43.568;22.256;2023-02-14T13:24:24;27.15;;;23.35;;
57225;SDS011;43082;43.568;22.256;2023-02-14T13:26:54;25.40;;;20.35;;
57225;SDS011;43082;43.568;22.256;2023-02-14T13:29:22;18.52;;;13.85;;
57225;SDS011;43082;43.568;22.256;2023-02-14T13:31:49;21.90;;;17.20;;
57225;SDS011;43082;43.568;22.256;2023-02-14T13:34:35;21.80;;;16.25;;
57225;SDS011;43082;43.568;22.256;2023-02-14T13:37:05;19.92;;;14.88;;
57225;SDS011;43082;43.568;22.256;2023-02-14T13:39:33;21.38;;;16.27;;
57225;SDS011;43082;43.568;22.256;2023-02-14T13:42:00;23.73;;;16.83;;
57225;SDS011;43082;43.568;22.256;2023-02-14T13:49:45;29.27;;;19.88;;
57225;SDS011;43082;43.568;22.256;2023-02-14T13:52:12;28.15;;;19.33;;
57225;SDS011;43082;43.568;22.256;2023-02-14T13:54:42;27.50;;;18.80;;
57225;SDS011;43082;43.568;22.256;2023-02-14T14:10:45;24.27;;;17.80;;
57225;SDS011;43082;43.568;22.256;2023-02-14T14:16:50;20.38;;;15.45;;
57225;SDS011;43082;43.568;22.256;2023-02-14T14:21:35;24.10;;;18.42;;
57225;SDS011;43082;43.568;22.256;2023-02-14T14:24:13;26.25;;;19.50;;
57225;SDS011;43082;43.568;22.256;2023-02-14T14:27:29;17.50;;;12.85;;
57225;SDS011;43082;43.568;22.256;2023-02-14T14:29:54;22.95;;;15.65;;
57225;SDS011;43082;43.568;22.256;2023-02-14T14:32:43;23.10;;;17.48;;
57225;SDS011;43082;43.568;22.256;2023-02-14T14:37:49;21.35;;;15.20;;
57225;SDS011;43082;43.568;22.256;2023-02-14T14:40:26;27.02;;;19.08;;
57225;SDS011;43082;43.568;22.256;2023-02-14T14:42:54;33.35;;;24.77;;
57225;SDS011;43082;43.568;22.256;2023-02-14T14:45:27;30.38;;;21.50;;
57225;SDS011;43082;43.568;22.256;2023-02-14T14:47:56;30.20;;;21.85;;
57225;SDS011;43082;43.568;22.256;2023-02-14T14:50:23;37.92;;;26.98;;
57225;SDS011;43082;43.568;22.256;2023-02-14T14:52:51;36.63;;;26.27;;
57225;SDS011;43082;43.568;22.256;2023-02-14T14:55:19;55.42;;;38.40;;
57225;SDS011;43082;43.568;22.256;2023-02-14T14:57:51;51.78;;;37.88;;
57225;SDS011;43082;43.568;22.256;2023-02-14T15:02:55;29.73;;;24.50;;
57225;SDS011;43082;43.568;22.256;2023-02-14T15:05:26;31.45;;;24.55;;
57225;SDS011;43082;43.568;22.256;2023-02-14T15:13:20;34.78;;;26.40;;
57225;SDS011;43082;43.568;22.256;2023-02-14T15:22:41;29.52;;;22.23;;
57225;SDS011;43082;43.568;22.256;2023-02-14T15:25:00;27.17;;;20.58;;
57225;SDS011;43082;43.568;22.256;2023-02-14T15:27:33;100.85;;;71.78;;
57225;SDS011;43082;43.568;22.256;2023-02-14T15:30:07;133.15;;;78.60;;
57225;SDS011;43082;43.568;22.256;2023-02-14T15:32:48;94.30;;;59.40;;
57225;SDS011;43082;43.568;22.256;2023-02-14T15:35:14;63.22;;;49.25;;
57225;SDS011;43082;43.568;22.256;2023-02-14T15:37:41;40.55;;;30.70;;
57225;SDS011;43082;43.568;22.256;2023-02-14T15:40:14;30.83;;;23.73;;
57225;SDS011;43082;43.568;22.256;2023-02-14T15:42:42;31.27;;;22.75;;
57225;SDS011;43082;43.568;22.256;2023-02-14T15:48:01;36.70;;;27.52;;
57225;SDS011;43082;43.568;22.256;2023-02-14T15:50:32;38.17;;;29.02;;
57225;SDS011;43082;43.568;22.256;2023-02-14T15:53:05;34.53;;;26.88;;
57225;SDS011;43082;43.568;22.256;2023-02-14T15:55:43;31.27;;;23.88;;
57225;SDS011;43082;43.568;22.256;2023-02-14T15:58:14;33.78;;;25.52;;
57225;SDS011;43082;43.568;22.256;2023-02-14T16:03:11;33.15;;;26.45;;
57225;SDS011;43082;43.568;22.256;2023-02-14T16:05:47;41.00;;;30.88;;
57225;SDS011;43082;43.568;22.256;2023-02-14T16:08:29;39.75;;;30.95;;
57225;SDS011;43082;43.568;22.256;2023-02-14T16:13:42;25.60;;;20.70;;
57225;SDS011;43082;43.568;22.256;2023-02-14T16:16:12;27.48;;;21.50;;
57225;SDS011;43082;43.568;22.256;2023-02-14T16:18:42;31.95;;;24.48;;
57225;SDS011;43082;43.568;22.256;2023-02-14T16:23:41;31.17;;;25.20;;
57225;SDS011;43082;43.568;22.256;2023-02-14T16:26:08;30.33;;;22.45;;
57225;SDS011;43082;43.568;22.256;2023-02-14T16:28:35;29.27;;;23.58;;
57225;SDS011;43082;43.568;22.256;2023-02-14T16:31:02;36.03;;;27.42;;
57225;SDS011;43082;43.568;22.256;2023-02-14T16:33:31;35.05;;;28.20;;
57225;SDS011;43082;43.568;22.256;2023-02-14T16:36:16;33.10;;;26.67;;
57225;SDS011;43082;43.568;22.256;2023-02-14T16:38:45;30.85;;;24.25;;
57225;SDS011;43082;43.568;22.256;2023-02-14T16:41:29;31.30;;;24.08;;
57225;SDS011;43082;43.568;22.256;2023-02-14T16:43:55;32.08;;;24.25;;
57225;SDS011;43082;43.568;22.256;2023-02-14T16:46:28;31.52;;;23.00;;
57225;SDS011;43082;43.568;22.256;2023-02-14T16:48:54;30.65;;;22.40;;
57225;SDS011;43082;43.568;22.256;2023-02-14T16:51:20;28.02;;;21.05;;
57225;SDS011;43082;43.568;22.256;2023-02-14T16:53:47;26.70;;;21.05;;
57225;SDS011;43082;43.568;22.256;2023-02-14T16:56:16;28.05;;;22.15;;
57225;SDS011;43082;43.568;22.256;2023-02-14T16:58:46;45.53;;;35.10;;
57225;SDS011;43082;43.568;22.256;2023-02-14T17:01:12;36.83;;;27.95;;
57225;SDS011;43082;43.568;22.256;2023-02-14T17:03:37;31.80;;;23.73;;
57225;SDS011;43082;43.568;22.256;2023-02-14T17:06:06;42.50;;;32.42;;
57225;SDS011;43082;43.568;22.256;2023-02-14T17:08:32;37.80;;;29.00;;
57225;SDS011;43082;43.568;22.256;2023-02-14T17:10:58;42.38;;;32.20;;
57225;SDS011;43082;43.568;22.256;2023-02-14T17:13:25;42.30;;;32.45;;
57225;SDS011;43082;43.568;22.256;2023-02-14T17:15:51;57.80;;;40.55;;